Rosario de la Frontera, Argentina
Current Conditions -  °F | °C
As of 7:00 AM on Friday 21 Nov 2014 (Local Time) from SANT Reporting Station
Drizzle Drizzle  
Wind Chill: 66°   Ceiling: 400
Heat Index: 66°   Visibility: 1.1mi
Dew Point: 66°   Wind: 16mph
Humidity: 100%   Direction: 140°SE
Pressure: 29.94"   Gusts: NA
Location:  25.8°S, 64.97°W
Report Text: SANT 211000Z 14014KT 1800 DZ BR BKN004BKN007 OVC035 19/19 Q1014
Loading
Personal Weather Stations






























Interactive Weather Map New forecast layout! Learn more

10-Day Weather Forecast

Advertisements
Track Severe Weather on mobile